createdAt,value
2023-03-06T00:01:07.078Z,5.62
2023-03-06T00:03:34.757Z,5.39
2023-03-06T00:06:02.690Z,5.65
2023-03-06T00:08:30.221Z,5.69
2023-03-06T00:10:58.418Z,5.61
2023-03-06T00:13:30.822Z,5.73
2023-03-06T00:16:03.721Z,5.73
2023-03-06T00:18:31.953Z,5.86
2023-03-06T00:20:59.816Z,5.97
2023-03-06T00:23:34.672Z,5.84
2023-03-06T00:26:12.110Z,5.89
2023-03-06T00:28:42.990Z,6.07
2023-03-06T00:31:11.200Z,5.78
2023-03-06T00:33:44.395Z,5.67
2023-03-06T00:36:15.188Z,5.83
2023-03-06T00:38:50.498Z,6.07
2023-03-06T00:41:25.604Z,6.33
2023-03-06T00:43:53.185Z,6.25
2023-03-06T00:46:20.902Z,5.95
2023-03-06T00:48:52.536Z,5.59
2023-03-06T00:51:25.167Z,5.32
2023-03-06T00:53:58.059Z,5.08
2023-03-06T00:56:26.338Z,4.94
2023-03-06T00:58:57.197Z,4.84
2023-03-06T01:01:26.744Z,5.25
2023-03-06T01:04:08.274Z,5.15
2023-03-06T01:06:42.273Z,4.85
2023-03-06T01:09:13.910Z,4.65
2023-03-06T01:11:41.861Z,4.62
2023-03-06T01:14:19.160Z,4.47
2023-03-06T01:16:50.749Z,4.44
2023-03-06T01:19:18.763Z,4.30
2023-03-06T01:21:49.113Z,4.41
2023-03-06T01:24:18.344Z,4.60
2023-03-06T01:26:47.039Z,4.70
2023-03-06T01:29:23.928Z,4.94
2023-03-06T01:31:57.075Z,4.84
2023-03-06T01:34:25.856Z,4.97
2023-03-06T01:36:59.394Z,4.87
2023-03-06T01:39:28.891Z,4.64
2023-03-06T01:41:56.870Z,4.46
2023-03-06T01:44:24.317Z,4.20
2023-03-06T01:46:52.026Z,4.05
2023-03-06T01:49:22.682Z,4.15
2023-03-06T01:52:10.792Z,4.08
2023-03-06T01:54:51.721Z,4.08
2023-03-06T01:57:31.040Z,4.09
2023-03-06T02:00:17.150Z,3.77
2023-03-06T02:02:55.699Z,3.69
2023-03-06T02:05:23.973Z,3.80
2023-03-06T02:07:52.366Z,3.68
2023-03-06T02:10:38.354Z,3.66
2023-03-06T02:13:11.415Z,3.78
2023-03-06T02:15:56.879Z,3.90
2023-03-06T02:18:43.431Z,3.71
2023-03-06T02:21:26.053Z,3.40
2023-03-06T02:24:27.881Z,3.57
2023-03-06T02:27:03.369Z,3.69
2023-03-06T02:29:33.870Z,3.74
2023-03-06T02:32:04.791Z,3.57
2023-03-06T02:34:38.649Z,3.77
2023-03-06T02:37:11.170Z,3.63
2023-03-06T02:39:55.013Z,3.71
2023-03-06T02:42:29.070Z,3.76
2023-03-06T02:44:59.557Z,3.56
2023-03-06T02:47:27.158Z,3.57
2023-03-06T02:49:55.218Z,3.43
2023-03-06T02:52:22.660Z,3.35
2023-03-06T02:54:50.425Z,3.40
2023-03-06T02:57:17.790Z,3.53
2023-03-06T02:59:46.423Z,3.40
2023-03-06T03:02:13.884Z,3.33
2023-03-06T03:04:47.341Z,3.47
2023-03-06T03:07:19.777Z,3.52
2023-03-06T03:09:48.573Z,3.31
2023-03-06T03:12:16.451Z,3.32
2023-03-06T03:14:44.455Z,3.47
2023-03-06T03:17:17.034Z,3.47
2023-03-06T03:19:47.272Z,3.65
2023-03-06T03:22:14.993Z,3.38
2023-03-06T03:24:44.791Z,3.51
2023-03-06T03:27:12.346Z,3.40
2023-03-06T03:29:41.480Z,3.31
2023-03-06T03:32:09.784Z,3.12
2023-03-06T03:34:37.954Z,3.27
2023-03-06T03:37:06.404Z,3.30
2023-03-06T03:39:34.170Z,3.37
2023-03-06T03:42:05.360Z,3.37
2023-03-06T03:44:33.381Z,3.16
2023-03-06T03:47:02.758Z,3.22
2023-03-06T03:49:31.361Z,3.12
2023-03-06T03:52:00.223Z,3.07
2023-03-06T03:54:31.207Z,3.09
2023-03-06T03:56:58.880Z,3.15
2023-03-06T03:59:32.086Z,3.06
2023-03-06T04:02:10.142Z,3.02
2023-03-06T04:04:47.226Z,2.95
2023-03-06T04:07:15.442Z,3.44
2023-03-06T04:09:43.301Z,3.39
2023-03-06T04:12:10.826Z,3.28
2023-03-06T04:14:38.902Z,3.14
2023-03-06T04:17:07.112Z,3.02
2023-03-06T04:19:35.206Z,3.19
2023-03-06T04:22:07.257Z,3.40
2023-03-06T04:24:41.250Z,3.58
2023-03-06T04:27:09.769Z,3.86
2023-03-06T04:29:37.519Z,3.97
2023-03-06T04:32:05.156Z,3.76
2023-03-06T04:34:32.903Z,3.74
2023-03-06T04:37:01.031Z,3.58
2023-03-06T04:39:28.748Z,3.58
2023-03-06T04:41:56.556Z,3.51
2023-03-06T04:44:25.756Z,3.25
2023-03-06T04:46:53.203Z,3.40
2023-03-06T04:49:21.102Z,3.29
2023-03-06T04:51:48.458Z,3.25
2023-03-06T04:54:17.988Z,3.36
2023-03-06T04:56:46.352Z,3.59
2023-03-06T04:59:14.081Z,3.35
2023-03-06T05:01:41.472Z,3.85
2023-03-06T05:04:23.186Z,3.73
2023-03-06T05:06:51.806Z,4.07
2023-03-06T05:09:19.500Z,3.78
2023-03-06T05:11:46.906Z,3.98
2023-03-06T05:14:14.596Z,3.89
2023-03-06T05:16:42.060Z,3.67
2023-03-06T05:19:09.797Z,3.88
2023-03-06T05:21:37.132Z,3.59
2023-03-06T05:24:05.187Z,3.74
2023-03-06T05:26:32.661Z,3.75
2023-03-06T05:29:01.027Z,3.46
2023-03-06T05:31:28.463Z,3.64
2023-03-06T05:33:58.623Z,3.66
2023-03-06T05:36:42.408Z,3.94
2023-03-06T05:39:24.798Z,4.13
2023-03-06T05:42:02.297Z,4.17
2023-03-06T05:44:42.762Z,4.37
2023-03-06T05:47:12.232Z,4.22
2023-03-06T05:49:40.427Z,4.34
2023-03-06T05:52:10.243Z,4.42
2023-03-06T05:54:38.517Z,4.98
2023-03-06T05:57:06.590Z,6.20
2023-03-06T05:59:34.406Z,6.96
2023-03-06T06:02:14.978Z,7.56
2023-03-06T06:05:13.155Z,8.00
2023-03-06T06:07:43.736Z,8.95
2023-03-06T06:10:16.306Z,9.26
2023-03-06T06:12:49.234Z,9.88
2023-03-06T06:15:21.681Z,10.72
2023-03-06T06:17:54.718Z,10.67
2023-03-06T06:20:23.722Z,10.59
2023-03-06T06:22:51.671Z,11.06
2023-03-06T06:25:20.507Z,10.84
2023-03-06T06:27:47.947Z,11.19
2023-03-06T06:30:16.012Z,11.57
2023-03-06T06:32:43.437Z,12.08
2023-03-06T06:35:11.097Z,12.69
2023-03-06T06:37:38.490Z,12.86
2023-03-06T06:40:09.354Z,12.19
2023-03-06T06:42:40.137Z,13.03
2023-03-06T06:45:11.653Z,12.60
2023-03-06T06:47:43.651Z,12.57
2023-03-06T06:50:13.453Z,12.77
2023-03-06T06:52:40.989Z,13.20
2023-03-06T06:55:09.934Z,13.67
2023-03-06T06:57:37.465Z,13.65
2023-03-06T07:00:09.337Z,13.11
2023-03-06T07:02:37.016Z,13.68
2023-03-06T07:05:05.717Z,13.21
2023-03-06T07:07:38.150Z,13.04
2023-03-06T07:10:08.859Z,12.54
2023-03-06T07:12:37.711Z,12.53
2023-03-06T07:15:07.089Z,11.75
2023-03-06T07:17:34.619Z,11.67
2023-03-06T07:20:02.549Z,11.70
2023-03-06T07:22:49.897Z,11.86
2023-03-06T07:25:18.946Z,12.31
2023-03-06T07:27:52.778Z,12.46
2023-03-06T07:30:25.790Z,11.23
2023-03-06T07:32:58.300Z,11.24
2023-03-06T07:35:26.594Z,11.66
2023-03-06T07:37:54.329Z,11.50
2023-03-06T07:40:23.597Z,11.33
2023-03-06T07:42:54.239Z,10.50
2023-03-06T07:45:26.714Z,10.66
2023-03-06T07:47:54.651Z,10.71
2023-03-06T07:50:22.528Z,11.08
2023-03-06T07:52:50.602Z,12.15
2023-03-06T07:55:19.571Z,11.68
2023-03-06T07:57:49.488Z,10.85
2023-03-06T08:00:18.547Z,10.66
2023-03-06T08:02:46.291Z,11.20
2023-03-06T08:05:17.216Z,11.24
2023-03-06T08:07:45.780Z,11.49
2023-03-06T08:10:16.080Z,11.50
2023-03-06T08:12:43.569Z,10.95
2023-03-06T08:15:12.538Z,10.44
2023-03-06T08:17:40.389Z,11.07
2023-03-06T08:20:12.882Z,10.45
2023-03-06T08:22:40.725Z,10.58
2023-03-06T08:25:09.379Z,10.39
2023-03-06T08:27:36.881Z,11.01
2023-03-06T08:30:05.771Z,11.82
2023-03-06T08:32:38.665Z,10.81
2023-03-06T08:35:07.063Z,10.95
2023-03-06T08:37:34.668Z,10.84
2023-03-06T08:40:04.929Z,11.01
2023-03-06T08:42:34.758Z,10.97
2023-03-06T08:45:02.734Z,10.58
2023-03-06T08:47:30.249Z,11.07
2023-03-06T08:50:00.595Z,12.11
2023-03-06T08:52:29.145Z,12.16
2023-03-06T08:54:58.203Z,12.55
2023-03-06T08:57:25.650Z,12.24
2023-03-06T08:59:53.396Z,11.70
2023-03-06T09:02:21.062Z,10.97
2023-03-06T09:04:49.282Z,11.01
2023-03-06T09:07:16.865Z,10.88
2023-03-06T09:09:44.660Z,11.23
2023-03-06T09:12:12.319Z,10.89
2023-03-06T09:14:40.026Z,10.48
2023-03-06T09:17:08.193Z,10.31
2023-03-06T09:19:36.127Z,10.66
2023-03-06T09:22:04.660Z,11.09
2023-03-06T09:24:32.881Z,10.92
2023-03-06T09:27:00.491Z,10.48
2023-03-06T09:29:28.992Z,10.06
2023-03-06T09:31:57.688Z,10.50
2023-03-06T09:34:27.819Z,10.48
2023-03-06T09:36:57.124Z,9.76
2023-03-06T09:39:26.407Z,9.75
2023-03-06T09:41:54.668Z,10.72
2023-03-06T09:44:26.386Z,11.11
2023-03-06T09:47:04.241Z,11.10
2023-03-06T09:49:50.437Z,11.73
2023-03-06T09:52:36.155Z,11.79
2023-03-06T09:55:12.776Z,11.57
2023-03-06T09:57:52.377Z,11.50
2023-03-06T10:00:43.321Z,11.84
2023-03-06T10:03:29.020Z,12.15
2023-03-06T10:06:09.201Z,12.10
2023-03-06T10:08:52.712Z,12.64
2023-03-06T10:11:28.274Z,12.08
2023-03-06T10:14:14.356Z,11.86
2023-03-06T10:16:42.436Z,11.79
2023-03-06T10:19:17.422Z,12.41
2023-03-06T10:22:04.990Z,12.05
2023-03-06T10:24:47.852Z,12.71
2023-03-06T10:27:38.082Z,13.38
2023-03-06T10:30:17.666Z,12.79
2023-03-06T10:32:59.637Z,12.91
2023-03-06T10:35:33.580Z,13.16
2023-03-06T10:38:20.448Z,13.13
2023-03-06T10:41:15.212Z,12.95
2023-03-06T10:43:48.076Z,13.58
2023-03-06T10:46:31.780Z,13.10
2023-03-06T10:49:06.414Z,13.32
2023-03-06T10:51:35.920Z,12.87
2023-03-06T10:54:19.466Z,12.91
2023-03-06T10:56:47.885Z,13.48
2023-03-06T10:59:25.553Z,12.69
2023-03-06T11:01:56.778Z,12.46
2023-03-06T11:04:30.565Z,13.20
2023-03-06T11:07:23.036Z,13.36
2023-03-06T11:09:57.227Z,13.54
2023-03-06T11:12:38.282Z,13.36
2023-03-06T11:15:21.514Z,12.88
2023-03-06T11:17:59.860Z,13.91
2023-03-06T11:20:53.000Z,14.29
2023-03-06T11:23:38.831Z,14.57
2023-03-06T11:26:20.412Z,14.22
2023-03-06T11:29:00.481Z,14.40
2023-03-06T11:32:06.020Z,14.22
2023-03-06T11:34:51.418Z,14.58
2023-03-06T11:37:51.388Z,13.60
2023-03-06T11:40:41.025Z,13.51
2023-03-06T11:43:53.944Z,13.20
2023-03-06T11:46:47.509Z,13.01
2023-03-06T11:49:39.840Z,13.24
2023-03-06T11:52:19.947Z,13.13
2023-03-06T11:55:03.704Z,13.91
2023-03-06T11:57:47.596Z,14.61
2023-03-06T12:00:22.156Z,15.22
2023-03-06T12:04:06.071Z,14.84
2023-03-06T12:07:02.106Z,15.12
2023-03-06T12:09:51.423Z,15.01
2023-03-06T12:12:48.657Z,15.27
2023-03-06T12:15:30.884Z,15.21
2023-03-06T12:18:23.179Z,15.03
2023-03-06T12:21:07.337Z,15.29
2023-03-06T12:23:38.189Z,15.35
2023-03-06T12:26:11.702Z,15.43
2023-03-06T12:29:02.001Z,14.75
2023-03-06T12:31:52.316Z,14.61
2023-03-06T12:34:49.454Z,14.26
2023-03-06T12:37:31.689Z,14.23
2023-03-06T12:40:41.717Z,14.47
2023-03-06T12:43:40.682Z,14.98
2023-03-06T12:46:17.053Z,16.14
2023-03-06T12:49:06.532Z,16.96
2023-03-06T12:51:35.122Z,17.37
2023-03-06T12:54:05.642Z,17.07
2023-03-06T12:56:41.850Z,17.38
2023-03-06T12:59:38.994Z,16.81
2023-03-06T13:02:30.720Z,17.80
2023-03-06T13:05:20.000Z,17.56
2023-03-06T13:08:12.864Z,16.47
2023-03-06T13:10:42.485Z,15.91
2023-03-06T13:13:33.674Z,16.17
2023-03-06T13:16:16.394Z,16.19
2023-03-06T13:18:44.320Z,15.54
2023-03-06T13:21:53.444Z,15.00
2023-03-06T13:24:23.251Z,15.35
2023-03-06T13:27:06.345Z,15.56
2023-03-06T13:29:37.112Z,15.61
2023-03-06T13:32:04.901Z,15.24
2023-03-06T13:34:32.586Z,15.68
2023-03-06T13:37:23.341Z,15.90
2023-03-06T13:39:59.894Z,16.57
2023-03-06T13:42:56.566Z,16.44
2023-03-06T13:45:42.087Z,15.60
2023-03-06T13:48:43.756Z,15.17
2023-03-06T13:51:24.284Z,14.46
2023-03-06T13:54:13.584Z,14.85
2023-03-06T13:57:13.222Z,15.45
2023-03-06T14:00:16.727Z,15.74
2023-03-06T14:03:42.529Z,16.04
2023-03-06T14:06:50.239Z,15.81
2023-03-06T14:09:45.875Z,15.67
2023-03-06T14:12:33.538Z,15.57
2023-03-06T14:15:22.436Z,15.44
2023-03-06T14:18:02.212Z,14.92
2023-03-06T14:20:39.306Z,14.78
2023-03-06T14:23:23.264Z,14.64
2023-03-06T14:26:19.366Z,14.70
2023-03-06T14:29:00.572Z,14.74
2023-03-06T14:31:41.400Z,14.87
2023-03-06T14:34:20.697Z,14.85
2023-03-06T14:36:51.582Z,14.79
2023-03-06T14:39:32.751Z,14.72
2023-03-06T14:42:29.227Z,14.76
2023-03-06T14:45:16.518Z,14.29
2023-03-06T14:47:50.064Z,14.29
2023-03-06T14:50:21.896Z,14.17
2023-03-06T14:52:56.553Z,13.90
2023-03-06T14:55:27.077Z,13.97
2023-03-06T14:58:00.012Z,13.98
2023-03-06T15:00:35.773Z,13.91
2023-03-06T15:03:08.930Z,13.64
2023-03-06T15:05:36.710Z,13.65
2023-03-06T15:08:08.310Z,13.66
2023-03-06T15:10:38.957Z,13.41
2023-03-06T15:13:25.143Z,13.48
2023-03-06T15:16:06.822Z,13.46
2023-03-06T15:18:35.605Z,13.62
2023-03-06T15:21:19.479Z,13.51
2023-03-06T15:23:49.336Z,13.51
2023-03-06T15:26:19.568Z,13.61
2023-03-06T15:29:09.486Z,13.66
2023-03-06T15:31:45.488Z,13.45
2023-03-06T15:34:24.519Z,13.38
2023-03-06T15:37:21.111Z,13.51
2023-03-06T15:40:11.541Z,13.68
2023-03-06T15:42:43.229Z,13.67
2023-03-06T15:45:26.621Z,13.68
2023-03-06T15:48:04.145Z,13.60
2023-03-06T15:50:59.902Z,13.64
2023-03-06T15:53:45.983Z,13.50
2023-03-06T15:56:33.949Z,13.44
2023-03-06T15:59:03.561Z,13.32
2023-03-06T16:01:35.282Z,13.29
2023-03-06T16:04:08.183Z,13.30
2023-03-06T16:06:41.276Z,13.12
2023-03-06T16:09:13.026Z,13.08
2023-03-06T16:11:47.815Z,13.00
2023-03-06T16:14:24.640Z,12.91
2023-03-06T16:16:57.613Z,12.95
2023-03-06T16:19:29.316Z,12.80
2023-03-06T16:22:00.783Z,12.91
2023-03-06T16:24:31.598Z,12.58
2023-03-06T16:27:01.717Z,12.47
2023-03-06T16:29:36.088Z,12.29
2023-03-06T16:32:06.936Z,12.02
2023-03-06T16:34:38.038Z,12.05
2023-03-06T16:37:11.604Z,12.01
2023-03-06T16:39:41.013Z,11.98
2023-03-06T16:42:16.251Z,11.94
2023-03-06T16:44:45.384Z,11.83
2023-03-06T16:47:20.556Z,11.73
2023-03-06T16:49:50.168Z,11.82
2023-03-06T16:52:25.616Z,11.82
2023-03-06T16:54:57.781Z,11.88
2023-03-06T16:57:37.010Z,11.73
2023-03-06T17:00:11.898Z,11.94
2023-03-06T17:02:44.190Z,11.90
2023-03-06T17:05:13.444Z,11.99
2023-03-06T17:07:41.542Z,11.92
2023-03-06T17:10:13.758Z,11.69
2023-03-06T17:12:59.990Z,11.65
2023-03-06T17:15:44.633Z,11.63
2023-03-06T17:18:44.309Z,11.62
2023-03-06T17:21:49.342Z,11.59
2023-03-06T17:24:20.747Z,11.23
2023-03-06T17:26:49.489Z,11.16
2023-03-06T17:32:10.940Z,10.95
2023-03-06T17:34:40.982Z,11.01
2023-03-06T17:41:47.559Z,10.87
2023-03-06T17:45:11.923Z,10.83
2023-03-06T17:51:08.814Z,10.66
2023-03-06T17:54:08.197Z,10.72
2023-03-06T17:56:51.038Z,10.75
2023-03-06T17:59:26.281Z,10.68
2023-03-06T18:02:09.470Z,10.73
2023-03-06T18:04:41.804Z,10.65
2023-03-06T18:07:23.024Z,10.76
2023-03-06T18:09:56.921Z,10.58
2023-03-06T18:13:10.103Z,10.51
2023-03-06T18:15:44.576Z,10.76
2023-03-06T18:18:14.269Z,10.73
2023-03-06T18:20:47.288Z,10.71
2023-03-06T18:23:17.340Z,10.64
2023-03-06T18:25:45.119Z,10.68
2023-03-06T18:28:13.001Z,10.67
2023-03-06T18:30:42.496Z,10.72
2023-03-06T18:33:12.845Z,10.71
2023-03-06T18:36:26.025Z,10.67
2023-03-06T18:39:08.198Z,10.64
2023-03-06T18:41:39.880Z,10.67
2023-03-06T18:44:33.784Z,10.67
2023-03-06T18:47:41.414Z,10.68
2023-03-06T18:54:59.196Z,10.58
2023-03-06T18:58:31.484Z,10.44
2023-03-06T19:09:45.558Z,10.57
2023-03-06T19:13:39.000Z,10.64
2023-03-06T19:16:47.016Z,10.58
2023-03-06T19:24:51.464Z,10.68
2023-03-06T19:28:34.929Z,10.67
2023-03-06T19:31:27.392Z,10.79
2023-03-06T19:34:12.282Z,10.81
2023-03-06T19:38:20.647Z,10.45
2023-03-06T19:40:58.347Z,10.83
2023-03-06T19:43:30.335Z,10.88
2023-03-06T19:46:01.321Z,10.85
2023-03-06T19:48:37.917Z,10.86
2023-03-06T19:51:07.711Z,10.89
2023-03-06T19:53:39.052Z,10.96
2023-03-06T19:56:19.655Z,10.97
2023-03-06T19:58:47.566Z,10.99
2023-03-06T20:01:19.554Z,11.01
2023-03-06T20:03:48.088Z,10.90
2023-03-06T20:06:20.437Z,11.07
2023-03-06T20:08:50.862Z,11.09
2023-03-06T20:11:20.284Z,11.18
2023-03-06T20:13:49.166Z,11.10
2023-03-06T20:16:21.196Z,11.24
2023-03-06T20:18:50.048Z,11.09
2023-03-06T20:21:18.224Z,11.18
2023-03-06T20:23:45.709Z,11.14
2023-03-06T20:26:15.396Z,11.03
2023-03-06T20:28:43.106Z,11.12
2023-03-06T20:31:16.542Z,11.17
2023-03-06T20:33:46.872Z,11.33
2023-03-06T20:36:22.842Z,11.39
2023-03-06T20:38:55.076Z,11.30
2023-03-06T20:41:25.886Z,11.36
2023-03-06T20:43:56.103Z,11.35
2023-03-06T20:46:26.058Z,11.42
2023-03-06T20:48:54.389Z,11.23
2023-03-06T20:51:28.854Z,11.41
2023-03-06T20:54:01.631Z,11.33
2023-03-06T20:56:35.872Z,11.37
2023-03-06T20:59:06.533Z,11.35
2023-03-06T21:01:39.249Z,11.22
2023-03-06T21:04:08.788Z,11.21
2023-03-06T21:06:37.853Z,11.32
2023-03-06T21:09:09.859Z,11.26
2023-03-06T21:11:39.001Z,11.24
2023-03-06T21:14:14.497Z,11.18
2023-03-06T21:16:47.963Z,11.12
2023-03-06T21:19:43.010Z,11.06
2023-03-06T21:22:21.288Z,10.98
2023-03-06T21:25:19.134Z,10.91
2023-03-06T21:27:51.259Z,10.77
2023-03-06T21:30:21.619Z,10.76
2023-03-06T21:33:00.233Z,10.81
2023-03-06T21:35:47.169Z,10.61
2023-03-06T21:38:32.271Z,10.70
2023-03-06T21:41:26.991Z,10.60
2023-03-06T21:44:07.455Z,10.62
2023-03-06T21:47:06.449Z,10.49
2023-03-06T21:49:45.886Z,10.32
2023-03-06T21:52:17.603Z,10.35
2023-03-06T21:54:51.000Z,10.25
2023-03-06T21:57:24.989Z,10.22
2023-03-06T22:00:10.477Z,10.19
2023-03-06T22:02:58.637Z,10.11
2023-03-06T22:05:26.812Z,10.05
2023-03-06T22:08:00.215Z,9.99
2023-03-06T22:10:35.460Z,10.00
2023-03-06T22:13:04.024Z,9.94
2023-03-06T22:15:37.953Z,9.85
2023-03-06T22:18:20.035Z,9.91
2023-03-06T22:21:31.182Z,9.85
2023-03-06T22:24:10.774Z,9.74
2023-03-06T22:26:49.320Z,9.68
2023-03-06T22:29:20.561Z,9.39
2023-03-06T22:32:31.356Z,9.32
2023-03-06T22:35:03.697Z,9.13
2023-03-06T22:37:32.240Z,9.03
2023-03-06T22:40:00.427Z,8.92
2023-03-06T22:42:37.090Z,8.89
2023-03-06T22:45:09.063Z,8.82
2023-03-06T22:47:39.241Z,8.61
2023-03-06T22:50:11.033Z,8.71
2023-03-06T22:54:06.255Z,8.73
2023-03-06T22:57:00.324Z,8.76
2023-03-06T23:02:47.243Z,8.68
2023-03-06T23:05:21.724Z,8.67
2023-03-06T23:11:44.669Z,8.68
2023-03-06T23:15:01.102Z,8.60
2023-03-06T23:18:40.989Z,8.46
2023-03-06T23:21:32.878Z,8.31
2023-03-06T23:24:21.194Z,8.23
2023-03-06T23:26:49.378Z,8.19
2023-03-06T23:29:20.514Z,8.13
2023-03-06T23:31:51.558Z,7.99
2023-03-06T23:34:18.940Z,8.02
2023-03-06T23:36:50.601Z,8.05
2023-03-06T23:40:10.126Z,8.03
2023-03-06T23:47:08.730Z,8.07
